Hubbard, OH (44425)

2:52 AM EDT on September 02, 2014 (GMT -0400)
KOHBROOK11 | Change Station
CLOSE
Current Station
Personal Weather Station
Location: Brookfield Center, OH
Elevation: 1147 ft
Nearby Weather Stations

Elev 1147 ft 41.23 °N, 80.58 °W | Updated 3 minutes ago

Clear
Clear
72.1 °F
Feels Like 72.1 °F
N
6.3
Wind Variable Wind from SSW

Today
High -- | Low -- °F
--% Chance of Precip.
Yesterday
High -- | Low -- °F
Precip. -- in
6:49 AM 7:53 PM
Waxing Crescent, 48% visible
Pressure 29.91 in
Visibility 10.0 miles
Clouds Few 25000 ft
Dew Point 69 °F
Humidity 91%
Rainfall 0.00 in
Snow Depth Not available.
UV 0 out of 12
Pollen 9.10 out of 12
Ozone Good
PM2.5 Moderate
Flu Activity Not available.
METAR KYNG 020551Z 21009KT 10SM FEW250 23/21 A2993 RMK AO2 SLP127 60001 T02280206 10256 20228 51002 $

More Conditions Fewer Conditions

Pressure 29.91 in
Visibility 10.0 miles
Clouds Few 25000 ft
Dew Point 69 °F
Humidity 91%
Rainfall 0.00 in
Snow Depth Not available.
UV 0 out of 12
Pollen 9.10 out of 12
Ozone Good
PM2.5 Moderate
Flu Activity Not available.
METAR KYNG 020551Z 21009KT 10SM FEW250 23/21 A2993 RMK AO2 SLP127 60001 T02280206 10256 20228 51002 $

More Conditions Fewer Conditions

10-Day Weather Forecast

Almanac

Astronomy

Sep. 02, 2014 Rise Set
Actual Time 6:49 AM EDT 7:53 PM EDT
Civil Twilight 6:21 AM EDT 8:21 PM EDT
Nautical Twilight 5:47 AM EDT 8:55 PM EDT
Astronomical Twilight 5:12 AM EDT 9:30 PM EDT
Moon 2:36 PM EDT No Moon Set
Length of Visible Light 14h 00m
Length of Day
13h 03m
Tomorrow will be 2m 39s shorter.
Waxing Crescent, 48% of the Moon is Illuminated
Today
Waxing Crescent
Sep 2
First Quarter
Sep 8
Full
Sep 15
Last Quarter
Sep 24
New

Today's Extremes

State Highs State Lows

Community

WunderPhotos

Upload Photos

1,749,589 photos uploaded!

WunderBlogs® & News

Nearby

Air Quality

  Air Quality AQ Index Pollutant
Yesterday Good
PM2.5
Yesterday Good
OZONE
Current Moderate
PM2.5
Current Good
OZONE
Tuesday Good
OZONE
Tuesday Good
PM2.5
Wednesday Moderate
PM2.5
Wednesday Moderate
OZONE
Thursday Moderate
OZONE
Thursday Moderate
PM2.5
Friday Moderate
OZONE
Friday Moderate
PM2.5
Saturday Good
OZONE
Saturday Good
PM2.5

Snow Depth

Station Depth Elevation
No new snow has been reported.

Earthquake Activity

City Distance Mag. Time & Date
No recent earthquake activity has been reported nearby.
Minimum magnitude displayed is 2.5.

Coastal Water Temperatures

Place Temperature
No Stations Reporting

Nearby Weather Stations